createdAt,value
2017-10-08T00:01:05.982Z,2.47
2017-10-08T00:03:33.306Z,3.90
2017-10-08T00:06:01.083Z,4.20
2017-10-08T00:08:28.417Z,6.13
2017-10-08T00:10:56.376Z,3.70
2017-10-08T00:13:23.760Z,2.47
2017-10-08T00:15:51.264Z,2.10
2017-10-08T00:18:18.619Z,2.23
2017-10-08T00:20:46.357Z,2.17
2017-10-08T00:23:14.462Z,1.70
2017-10-08T00:25:41.816Z,2.10
2017-10-08T00:28:09.180Z,2.00
2017-10-08T00:30:36.523Z,2.37
2017-10-08T00:33:03.876Z,1.70
2017-10-08T00:35:31.621Z,3.97
2017-10-08T00:37:58.981Z,2.63
2017-10-08T00:40:26.713Z,2.20
2017-10-08T00:42:54.053Z,2.50
2017-10-08T00:45:21.760Z,2.20
2017-10-08T00:47:49.087Z,3.20
2017-10-08T00:50:16.806Z,2.17
2017-10-08T00:52:44.500Z,3.83
2017-10-08T00:55:11.937Z,2.43
2017-10-08T00:57:39.295Z,4.87
2017-10-08T01:00:09.002Z,2.43
2017-10-08T01:02:36.759Z,2.83
2017-10-08T01:05:04.086Z,3.17
2017-10-08T01:07:31.776Z,2.83
2017-10-08T01:09:59.102Z,3.00
2017-10-08T01:12:26.893Z,3.50
2017-10-08T01:14:54.254Z,2.80
2017-10-08T01:17:21.884Z,4.63
2017-10-08T01:19:49.197Z,3.60
2017-10-08T01:22:17.050Z,2.40
2017-10-08T01:24:44.384Z,3.07
2017-10-08T01:27:12.257Z,3.20
2017-10-08T01:29:39.600Z,3.37
2017-10-08T01:32:07.358Z,3.27
2017-10-08T01:34:34.699Z,3.53
2017-10-08T01:37:02.481Z,7.63
2017-10-08T01:39:29.837Z,3.90
2017-10-08T01:41:57.414Z,3.93
2017-10-08T01:44:24.789Z,4.03
2017-10-08T01:46:52.466Z,2.90
2017-10-08T01:49:19.788Z,2.00
2017-10-08T01:51:47.593Z,2.63
2017-10-08T01:54:14.923Z,2.33
2017-10-08T01:56:42.641Z,2.30
2017-10-08T01:59:10.032Z,2.80
2017-10-08T02:01:37.765Z,5.00
2017-10-08T02:04:05.161Z,2.67
2017-10-08T02:06:32.752Z,2.70
2017-10-08T02:09:00.101Z,2.17
2017-10-08T02:11:27.798Z,3.87
2017-10-08T02:13:55.127Z,2.90
2017-10-08T02:16:22.881Z,2.27
2017-10-08T02:18:50.209Z,2.80
2017-10-08T02:21:17.910Z,2.40
2017-10-08T02:23:45.235Z,4.93
2017-10-08T02:26:13.013Z,3.10
2017-10-08T02:28:40.344Z,2.30
2017-10-08T02:31:08.181Z,2.07
2017-10-08T02:33:35.494Z,2.50
2017-10-08T02:36:03.297Z,2.60
2017-10-08T02:38:30.650Z,3.57
2017-10-08T02:40:58.394Z,5.67
2017-10-08T02:43:26.330Z,5.03
2017-10-08T02:45:53.674Z,3.50
2017-10-08T02:48:21.005Z,5.00
2017-10-08T02:50:48.418Z,5.43
2017-10-08T02:53:15.740Z,5.00
2017-10-08T02:55:43.463Z,5.83
2017-10-08T02:58:10.796Z,3.90
2017-10-08T03:00:38.594Z,6.00
2017-10-08T03:03:06.335Z,4.63
2017-10-08T03:05:33.857Z,9.27
2017-10-08T03:08:01.304Z,5.00
2017-10-08T03:10:28.897Z,6.87
2017-10-08T03:12:56.230Z,8.20
2017-10-08T03:15:23.979Z,6.57
2017-10-08T03:17:51.302Z,6.63
2017-10-08T03:20:19.015Z,4.00
2017-10-08T03:22:46.342Z,5.27
2017-10-08T03:25:14.056Z,4.10
2017-10-08T03:27:41.394Z,5.93
2017-10-08T03:30:10.612Z,5.50
2017-10-08T03:32:38.657Z,4.60
2017-10-08T03:35:05.987Z,4.80
2017-10-08T03:37:34.223Z,6.53
2017-10-08T03:40:01.733Z,4.57
2017-10-08T03:42:29.345Z,6.43
2017-10-08T03:44:56.745Z,5.07
2017-10-08T03:47:24.312Z,3.80
2017-10-08T03:49:51.693Z,5.20
2017-10-08T03:52:19.365Z,5.33
2017-10-08T03:54:46.701Z,5.90
2017-10-08T03:57:14.485Z,6.90
2017-10-08T03:59:41.817Z,3.43
2017-10-08T04:02:09.658Z,3.30
2017-10-08T04:04:37.004Z,3.47
2017-10-08T04:07:04.730Z,3.83
2017-10-08T04:09:32.059Z,6.47
2017-10-08T04:11:59.850Z,4.60
2017-10-08T04:14:27.182Z,4.47
2017-10-08T04:16:54.849Z,2.80
2017-10-08T04:19:22.233Z,3.27
2017-10-08T04:21:49.993Z,4.00
2017-10-08T04:24:17.324Z,2.20
2017-10-08T04:26:45.002Z,2.10
2017-10-08T04:29:12.365Z,2.40
2017-10-08T04:31:40.133Z,2.43
2017-10-08T04:34:07.460Z,2.70
2017-10-08T04:36:35.250Z,3.03
2017-10-08T04:39:02.595Z,2.20
2017-10-08T04:41:30.262Z,2.00
2017-10-08T04:43:57.580Z,2.30
2017-10-08T04:46:25.368Z,2.30
2017-10-08T04:48:52.687Z,2.40
2017-10-08T04:51:20.494Z,3.77
2017-10-08T04:53:47.841Z,2.93
2017-10-08T04:56:15.613Z,2.60
2017-10-08T04:58:42.937Z,2.00
2017-10-08T05:01:10.709Z,2.40
2017-10-08T05:03:38.028Z,3.83
2017-10-08T05:06:05.740Z,2.20
2017-10-08T05:08:33.062Z,2.33
2017-10-08T05:11:00.785Z,2.17
2017-10-08T05:13:28.119Z,2.40
2017-10-08T05:15:56.000Z,2.30
2017-10-08T05:18:23.336Z,2.77
2017-10-08T05:20:50.917Z,2.23
2017-10-08T05:23:21.099Z,3.17
2017-10-08T05:25:48.433Z,2.47
2017-10-08T05:28:16.058Z,2.37
2017-10-08T05:30:43.378Z,2.10
2017-10-08T05:33:11.182Z,2.30
2017-10-08T05:35:38.493Z,2.50
2017-10-08T05:38:06.193Z,2.30
2017-10-08T05:40:33.543Z,2.50
2017-10-08T05:43:01.320Z,2.57
2017-10-08T05:45:28.659Z,3.23
2017-10-08T05:47:56.278Z,2.43
2017-10-08T05:50:23.618Z,3.70
2017-10-08T05:52:51.365Z,3.13
2017-10-08T05:55:18.696Z,2.60
2017-10-08T05:57:46.474Z,2.23
2017-10-08T06:00:14.302Z,2.40
2017-10-08T06:02:41.875Z,2.93
2017-10-08T06:05:09.210Z,2.47
2017-10-08T06:07:37.127Z,3.47
2017-10-08T06:10:06.573Z,3.13
2017-10-08T06:12:33.961Z,2.43
2017-10-08T06:15:01.694Z,7.07
2017-10-08T06:17:29.031Z,2.83
2017-10-08T06:19:56.692Z,2.57
2017-10-08T06:22:24.869Z,2.57
2017-10-08T06:24:52.327Z,3.10
2017-10-08T06:27:19.656Z,2.53
2017-10-08T06:29:47.434Z,3.00
2017-10-08T06:32:14.803Z,3.97
2017-10-08T06:34:42.480Z,6.70
2017-10-08T06:37:09.826Z,3.23
2017-10-08T06:39:37.614Z,3.47
2017-10-08T06:42:04.935Z,2.70
2017-10-08T06:44:32.567Z,3.23
2017-10-08T06:46:59.896Z,2.67
2017-10-08T06:49:27.659Z,6.37
2017-10-08T06:51:55.006Z,3.43
2017-10-08T06:54:23.637Z,3.60
2017-10-08T06:56:51.053Z,3.00
2017-10-08T06:59:18.428Z,3.40
2017-10-08T07:01:45.768Z,3.50
2017-10-08T07:04:13.096Z,4.87
2017-10-08T07:06:40.446Z,4.07
2017-10-08T07:09:07.990Z,3.47
2017-10-08T07:11:35.505Z,3.87
2017-10-08T07:14:03.225Z,3.70
2017-10-08T07:16:30.577Z,5.40
2017-10-08T07:18:58.188Z,3.50
2017-10-08T07:21:25.539Z,4.07
2017-10-08T07:23:53.238Z,4.37
2017-10-08T07:26:20.554Z,4.47
2017-10-08T07:28:48.171Z,3.63
2017-10-08T07:31:15.506Z,4.67
2017-10-08T07:33:43.261Z,4.57
2017-10-08T07:36:10.589Z,3.80
2017-10-08T07:38:38.353Z,4.30
2017-10-08T07:41:05.680Z,5.37
2017-10-08T07:43:33.340Z,5.43
2017-10-08T07:46:00.667Z,6.33
2017-10-08T07:48:28.396Z,7.23
2017-10-08T07:50:55.725Z,5.80
2017-10-08T07:53:23.478Z,5.70
2017-10-08T07:55:50.793Z,10.87
2017-10-08T07:58:18.562Z,6.80
2017-10-08T08:00:45.907Z,7.23
2017-10-08T08:03:15.265Z,5.07
2017-10-08T08:05:43.080Z,4.57
2017-10-08T08:08:10.406Z,7.07
2017-10-08T08:10:38.246Z,5.43
2017-10-08T08:13:05.578Z,4.63
2017-10-08T08:15:33.449Z,4.80
2017-10-08T08:18:00.797Z,4.60
2017-10-08T08:20:28.421Z,4.57
2017-10-08T08:22:55.737Z,6.13
2017-10-08T08:25:23.578Z,4.40
2017-10-08T08:27:50.901Z,6.00
2017-10-08T08:30:18.658Z,4.33
2017-10-08T08:32:45.977Z,4.67
2017-10-08T08:35:13.737Z,5.27
2017-10-08T08:37:41.201Z,5.37
2017-10-08T08:40:10.193Z,6.90
2017-10-08T08:42:37.978Z,4.60
2017-10-08T08:45:05.308Z,4.90
2017-10-08T08:47:32.994Z,4.33
2017-10-08T08:50:00.328Z,5.73
2017-10-08T08:52:28.127Z,4.67
2017-10-08T08:54:55.474Z,5.37
2017-10-08T08:57:23.426Z,4.27
2017-10-08T08:59:50.763Z,5.00
2017-10-08T09:02:18.491Z,5.40
2017-10-08T09:04:45.821Z,6.77
2017-10-08T09:07:13.681Z,5.07
2017-10-08T09:09:41.018Z,6.90
2017-10-08T09:12:08.658Z,7.50
2017-10-08T09:14:36.032Z,6.37
2017-10-08T09:17:03.705Z,5.20
2017-10-08T09:19:31.021Z,4.80
2017-10-08T09:21:58.813Z,4.70
2017-10-08T09:24:26.177Z,6.40
2017-10-08T09:26:53.841Z,4.03
2017-10-08T09:29:21.160Z,8.77
2017-10-08T09:31:48.896Z,5.43
2017-10-08T09:34:16.213Z,3.47
2017-10-08T09:36:43.897Z,5.27
2017-10-08T09:39:11.220Z,4.13
2017-10-08T09:41:39.086Z,4.20
2017-10-08T09:44:06.420Z,6.03
2017-10-08T09:46:33.923Z,3.30
2017-10-08T09:49:01.286Z,4.40
2017-10-08T09:51:29.053Z,3.20
2017-10-08T09:53:56.381Z,15.57
2017-10-08T09:56:24.165Z,6.00
2017-10-08T09:58:51.503Z,4.70
2017-10-08T10:01:19.233Z,3.53
2017-10-08T10:03:46.582Z,3.57
2017-10-08T10:06:14.303Z,2.73
2017-10-08T10:08:41.631Z,3.13
2017-10-08T10:11:09.339Z,3.10
2017-10-08T10:13:36.669Z,4.53
2017-10-08T10:16:04.289Z,3.47
2017-10-08T10:18:31.648Z,2.90
2017-10-08T10:20:59.357Z,3.17
2017-10-08T10:23:26.774Z,3.37
2017-10-08T10:25:54.377Z,4.10
2017-10-08T10:28:21.706Z,3.87
2017-10-08T10:30:49.556Z,2.40
2017-10-08T10:33:16.892Z,3.20
2017-10-08T10:35:44.498Z,3.33
2017-10-08T10:38:11.813Z,3.10
2017-10-08T10:40:39.645Z,3.60
2017-10-08T10:43:06.971Z,6.17
2017-10-08T10:45:34.658Z,11.10
2017-10-08T10:48:02.093Z,8.23
2017-10-08T10:50:29.673Z,3.57
2017-10-08T10:52:57.121Z,4.17
2017-10-08T10:55:25.246Z,3.80
2017-10-08T10:57:52.591Z,8.20
2017-10-08T11:00:20.296Z,6.20
2017-10-08T11:02:47.615Z,3.30
2017-10-08T11:05:15.337Z,2.60
2017-10-08T11:07:42.788Z,2.47
2017-10-08T11:10:11.628Z,3.67
2017-10-08T11:12:38.997Z,3.00
2017-10-08T11:15:06.332Z,3.97
2017-10-08T11:17:33.667Z,2.80
2017-10-08T11:20:01.071Z,6.10
2017-10-08T11:22:28.391Z,9.67
2017-10-08T11:24:56.121Z,6.73
2017-10-08T11:27:23.450Z,3.73
2017-10-08T11:29:51.145Z,3.60
2017-10-08T11:32:18.479Z,3.30
2017-10-08T11:34:46.297Z,2.67
2017-10-08T11:37:13.793Z,4.13
2017-10-08T11:39:41.387Z,4.07
2017-10-08T11:44:51.247Z,2.83
2017-10-08T11:47:18.589Z,3.77
2017-10-08T11:49:46.524Z,3.90
2017-10-08T11:52:13.856Z,3.00
2017-10-08T11:54:41.493Z,2.60
2017-10-08T11:57:08.819Z,7.03
2017-10-08T11:59:36.629Z,4.93
2017-10-08T12:02:03.957Z,3.03
2017-10-08T12:04:31.658Z,2.53
2017-10-08T12:06:59.011Z,3.47
2017-10-08T12:09:26.661Z,3.07
2017-10-08T12:11:53.997Z,2.70
2017-10-08T12:14:21.715Z,2.57
2017-10-08T12:16:49.826Z,2.87
2017-10-08T12:19:17.147Z,3.37
2017-10-08T12:21:44.516Z,2.97
2017-10-08T12:24:11.847Z,3.13
2017-10-08T12:26:39.670Z,3.80
2017-10-08T12:29:06.998Z,4.10
2017-10-08T12:31:34.351Z,3.90
2017-10-08T12:34:02.073Z,5.43
2017-10-08T12:36:29.384Z,8.17
2017-10-08T12:38:57.177Z,7.20
2017-10-08T12:41:24.512Z,4.67
2017-10-08T12:43:52.077Z,6.73
2017-10-08T12:46:19.407Z,5.10
2017-10-08T12:48:47.611Z,6.97
2017-10-08T12:51:15.044Z,7.77
2017-10-08T12:53:42.410Z,9.73
2017-10-08T12:56:09.915Z,11.27
2017-10-08T12:58:37.354Z,10.67
2017-10-08T13:01:04.675Z,11.33
2017-10-08T13:03:32.298Z,9.47
2017-10-08T13:05:59.620Z,10.93
2017-10-08T13:08:27.520Z,8.73
2017-10-08T13:10:54.866Z,9.23
2017-10-08T13:13:22.754Z,9.27
2017-10-08T13:15:50.430Z,6.37
2017-10-08T13:18:17.904Z,7.27
2017-10-08T13:20:45.450Z,8.07
2017-10-08T13:23:14.163Z,6.97
2017-10-08T13:25:43.327Z,5.60
2017-10-08T13:28:10.798Z,8.70
2017-10-08T13:30:38.196Z,6.57
2017-10-08T13:33:05.607Z,6.77
2017-10-08T13:35:33.019Z,5.60
2017-10-08T13:38:00.423Z,8.27
2017-10-08T13:40:27.908Z,10.20
2017-10-08T13:42:55.276Z,11.93
2017-10-08T13:45:23.084Z,13.53
2017-10-08T13:47:50.600Z,7.53
2017-10-08T13:50:18.816Z,8.10
2017-10-08T13:52:46.276Z,4.37
2017-10-08T13:55:13.601Z,5.40
2017-10-08T13:57:41.092Z,6.67
2017-10-08T14:00:09.939Z,6.03
2017-10-08T14:02:38.153Z,11.27
2017-10-08T14:05:05.594Z,6.83
2017-10-08T14:07:33.161Z,7.73
2017-10-08T14:10:00.584Z,6.03
2017-10-08T14:12:28.910Z,7.13
2017-10-08T14:14:56.822Z,9.97
2017-10-08T14:17:25.635Z,6.77
2017-10-08T14:19:53.836Z,11.37
2017-10-08T14:22:22.985Z,8.33
2017-10-08T14:24:51.926Z,11.90
2017-10-08T14:27:20.515Z,16.57
2017-10-08T14:29:48.264Z,9.00
2017-10-08T14:32:16.163Z,12.67
2017-10-08T14:34:45.113Z,8.83
2017-10-08T14:37:13.411Z,10.73
2017-10-08T14:39:40.914Z,10.03
2017-10-08T14:42:08.941Z,7.53
2017-10-08T14:44:37.132Z,8.37
2017-10-08T14:47:04.464Z,9.37
2017-10-08T14:49:32.134Z,5.63
2017-10-08T14:51:59.797Z,9.27
2017-10-08T14:54:27.820Z,9.87
2017-10-08T14:56:55.257Z,6.83
2017-10-08T14:59:22.955Z,9.10
2017-10-08T15:01:50.362Z,8.90
2017-10-08T15:04:17.888Z,8.57
2017-10-08T15:06:45.237Z,9.27
2017-10-08T15:09:12.999Z,7.77
2017-10-08T15:11:40.428Z,10.90
2017-10-08T15:14:08.522Z,9.17
2017-10-08T15:16:35.910Z,7.37
2017-10-08T15:19:03.589Z,6.90
2017-10-08T15:21:31.131Z,7.30
2017-10-08T15:23:59.037Z,9.47
2017-10-08T15:26:26.524Z,8.73
2017-10-08T15:28:54.285Z,6.93
2017-10-08T15:31:21.667Z,8.23
2017-10-08T15:33:49.486Z,5.83
2017-10-08T15:36:16.829Z,6.73
2017-10-08T15:38:44.438Z,9.57
2017-10-08T15:41:11.762Z,5.57
2017-10-08T15:43:39.529Z,55.20
2017-10-08T15:46:07.016Z,27.80
2017-10-08T15:48:35.096Z,38.57
2017-10-08T15:51:02.880Z,19.37
2017-10-08T15:53:30.283Z,59.93
2017-10-08T15:55:57.915Z,26.83
2017-10-08T15:58:26.069Z,18.13
2017-10-08T16:00:53.861Z,14.77
2017-10-08T16:03:24.541Z,14.80
2017-10-08T16:05:52.334Z,6.50
2017-10-08T16:08:19.998Z,6.63
2017-10-08T16:10:47.387Z,9.63
2017-10-08T16:13:14.860Z,10.40
2017-10-08T16:15:42.249Z,9.93
2017-10-08T16:18:09.901Z,9.80
2017-10-08T16:20:37.380Z,7.70
2017-10-08T16:23:04.938Z,8.33
2017-10-08T16:25:32.372Z,13.80
2017-10-08T16:28:00.099Z,14.27
2017-10-08T16:30:27.500Z,22.43
2017-10-08T16:32:55.330Z,24.33
2017-10-08T16:35:22.711Z,20.30
2017-10-08T16:37:50.157Z,18.20
2017-10-08T16:40:17.546Z,10.70
2017-10-08T16:42:45.242Z,10.53
2017-10-08T16:45:12.886Z,8.60
2017-10-08T16:47:40.319Z,12.37
2017-10-08T16:50:08.424Z,13.07
2017-10-08T16:52:35.904Z,10.67
2017-10-08T16:55:03.388Z,8.57
2017-10-08T16:57:30.988Z,8.33
2017-10-08T16:59:58.394Z,13.33
2017-10-08T17:02:25.839Z,13.47
2017-10-08T17:04:53.239Z,18.17
2017-10-08T17:07:21.637Z,15.07
2017-10-08T17:09:49.048Z,12.93
2017-10-08T17:12:16.408Z,14.20
2017-10-08T17:14:44.057Z,11.77
2017-10-08T17:17:11.482Z,18.10
2017-10-08T17:19:38.960Z,19.50
2017-10-08T17:22:06.580Z,21.60
2017-10-08T17:24:33.960Z,18.47
2017-10-08T17:27:01.387Z,23.63
2017-10-08T17:29:29.046Z,18.97
2017-10-08T17:31:56.825Z,21.57
2017-10-08T17:34:24.587Z,7.57
2017-10-08T17:36:53.171Z,7.83
2017-10-08T17:39:21.350Z,18.17
2017-10-08T17:41:50.346Z,35.77
2017-10-08T17:44:19.263Z,39.37
2017-10-08T17:46:48.530Z,38.07
2017-10-08T17:49:17.930Z,40.93
2017-10-08T17:51:47.248Z,32.97
2017-10-08T17:54:17.022Z,29.83
2017-10-08T17:56:46.224Z,17.57
2017-10-08T17:59:15.465Z,14.70
2017-10-08T18:01:44.750Z,16.03
2017-10-08T18:04:13.956Z,19.53
2017-10-08T18:06:43.007Z,23.43
2017-10-08T18:09:12.053Z,19.77
2017-10-08T18:11:41.514Z,12.73
2017-10-08T18:14:11.231Z,19.27
2017-10-08T18:16:41.172Z,22.73
2017-10-08T18:19:10.369Z,24.87
2017-10-08T18:21:39.575Z,18.03
2017-10-08T18:24:09.251Z,11.53
2017-10-08T18:26:38.562Z,8.57
2017-10-08T18:29:08.334Z,10.23
2017-10-08T18:31:38.434Z,9.83
2017-10-08T18:34:07.728Z,8.93
2017-10-08T18:36:37.632Z,10.50
2017-10-08T18:39:06.840Z,13.47
2017-10-08T18:41:36.538Z,17.20
2017-10-08T18:44:05.776Z,23.97
2017-10-08T18:46:35.993Z,19.80
2017-10-08T18:49:05.382Z,16.33
2017-10-08T18:51:34.784Z,13.27
2017-10-08T18:54:04.859Z,10.10
2017-10-08T18:56:41.268Z,7.73
2017-10-08T18:59:10.608Z,6.43
2017-10-08T19:01:39.620Z,9.60
2017-10-08T19:04:08.962Z,5.97
2017-10-08T19:06:38.240Z,8.90
2017-10-08T19:09:07.504Z,5.40
2017-10-08T19:11:36.883Z,6.00
2017-10-08T19:14:05.980Z,10.93
2017-10-08T19:16:42.330Z,9.93
2017-10-08T19:19:17.976Z,6.03
2017-10-08T19:21:53.300Z,3.83
2017-10-08T19:24:28.395Z,4.93
2017-10-08T19:27:03.876Z,4.50
2017-10-08T19:29:39.337Z,5.60
2017-10-08T19:32:14.687Z,4.33
2017-10-08T19:34:50.681Z,2.67
2017-10-08T19:37:25.689Z,3.20
2017-10-08T19:40:00.843Z,2.10
2017-10-08T19:42:35.963Z,2.73
2017-10-08T19:45:11.086Z,2.57
2017-10-08T19:47:46.184Z,3.73
2017-10-08T19:50:22.276Z,2.90
2017-10-08T19:52:57.877Z,4.03
2017-10-08T19:55:33.381Z,4.40
2017-10-08T19:58:08.639Z,4.27
2017-10-08T20:00:44.366Z,4.73
2017-10-08T20:03:19.510Z,5.70
2017-10-08T20:05:55.127Z,4.77
2017-10-08T20:08:30.106Z,7.53
2017-10-08T20:11:05.435Z,7.07
2017-10-08T20:13:40.760Z,6.50
2017-10-08T20:16:16.022Z,6.73
2017-10-08T20:18:51.217Z,5.40
2017-10-08T20:21:26.827Z,5.67
2017-10-08T20:24:02.171Z,6.13
2017-10-08T20:26:37.434Z,6.07
2017-10-08T20:29:12.816Z,5.50
2017-10-08T20:31:47.819Z,5.27
2017-10-08T20:34:22.900Z,5.90
2017-10-08T20:36:58.045Z,5.87
2017-10-08T20:39:33.100Z,6.13
2017-10-08T20:42:08.068Z,7.50
2017-10-08T20:44:43.023Z,6.37
2017-10-08T20:47:17.905Z,6.83
2017-10-08T20:49:52.895Z,6.13
2017-10-08T20:52:27.620Z,7.77
2017-10-08T20:55:02.608Z,8.07
2017-10-08T20:57:36.972Z,6.83
2017-10-08T21:00:10.853Z,7.80
2017-10-08T21:02:45.236Z,6.23
2017-10-08T21:05:18.620Z,6.00
2017-10-08T21:07:51.951Z,5.73
2017-10-08T21:10:25.738Z,6.50
2017-10-08T21:12:59.960Z,7.07
2017-10-08T21:15:33.261Z,9.10
2017-10-08T21:18:07.001Z,8.77
2017-10-08T21:20:40.697Z,7.70
2017-10-08T21:23:14.241Z,10.87
2017-10-08T21:25:47.784Z,8.40
2017-10-08T21:28:21.064Z,7.80
2017-10-08T21:30:55.090Z,6.17
2017-10-08T21:33:28.550Z,7.67
2017-10-08T21:36:02.224Z,7.53
2017-10-08T21:38:37.754Z,6.53
2017-10-08T21:41:11.667Z,6.20
2017-10-08T21:43:45.365Z,6.90
2017-10-08T21:46:19.387Z,6.67
2017-10-08T21:48:46.537Z,8.30
2017-10-08T21:51:14.195Z,6.80
2017-10-08T21:53:41.333Z,7.10
2017-10-08T21:56:09.673Z,6.17
2017-10-08T21:58:36.827Z,7.53
2017-10-08T22:01:04.380Z,6.40
2017-10-08T22:03:31.547Z,7.63
2017-10-08T22:05:59.059Z,7.50
2017-10-08T22:08:26.214Z,6.03
2017-10-08T22:10:53.565Z,7.83
2017-10-08T22:13:22.899Z,5.90
2017-10-08T22:15:50.081Z,6.07
2017-10-08T22:18:17.223Z,7.30
2017-10-08T22:20:44.567Z,6.83
2017-10-08T22:23:13.206Z,8.10
2017-10-08T22:25:40.549Z,5.60
2017-10-08T22:28:07.905Z,6.57
2017-10-08T22:30:35.281Z,6.80
2017-10-08T22:33:02.597Z,7.17
2017-10-08T22:35:29.907Z,7.33
2017-10-08T22:37:57.492Z,7.93
2017-10-08T22:40:24.830Z,7.77
2017-10-08T22:42:52.577Z,9.20
2017-10-08T22:45:19.945Z,7.40
2017-10-08T22:47:47.632Z,12.00
2017-10-08T22:50:15.975Z,8.00
2017-10-08T22:52:43.453Z,12.53
2017-10-08T22:55:10.816Z,9.47
2017-10-08T22:57:38.139Z,9.03
2017-10-08T23:00:06.165Z,8.43
2017-10-08T23:02:33.497Z,7.37
2017-10-08T23:05:00.882Z,10.47
2017-10-08T23:07:28.280Z,6.93
2017-10-08T23:09:56.064Z,7.33
2017-10-08T23:12:23.411Z,8.50
2017-10-08T23:14:50.734Z,13.23
2017-10-08T23:17:19.042Z,10.60
2017-10-08T23:19:46.478Z,10.43
2017-10-08T23:22:13.815Z,12.77
2017-10-08T23:24:41.282Z,10.50
2017-10-08T23:27:08.964Z,11.70
2017-10-08T23:29:36.994Z,10.40
2017-10-08T23:32:04.698Z,11.00
2017-10-08T23:34:32.602Z,10.80
2017-10-08T23:36:59.977Z,12.47
2017-10-08T23:39:27.618Z,11.70
2017-10-08T23:41:54.943Z,11.43
2017-10-08T23:44:22.789Z,9.97
2017-10-08T23:46:50.118Z,12.27
2017-10-08T23:49:17.945Z,9.40
2017-10-08T23:51:45.314Z,11.07
2017-10-08T23:54:12.874Z,9.83
2017-10-08T23:56:40.262Z,11.07
2017-10-08T23:59:07.942Z,11.83
